Time;durP1;ratioP1;P1;durP2;ratioP2;P2;SDS_P1;SDS_P2;PMS_P1;PMS_P2;Temp;Humidity;BMP_temperature;BMP_pressure;BME280_temperature;BME280_humidity;BME280_pressure;Samples;Min_cycle;Max_cycle;Signal;HPM_P1;HPM_P2
2021/10/18 00:01:44;;;;;;;184.87;170.43;;;8.40;99.90;;;;;;5016926;28;20198;-79
2021/10/18 00:04:09;;;;;;;204.43;189.13;;;8.30;99.90;;;;;;5016846;28;20649;-79
2021/10/18 00:06:35;;;;;;;185.87;171.63;;;8.30;99.90;;;;;;5016914;28;20181;-79
2021/10/18 00:09:02;;;;;;;172.17;158.10;;;8.30;99.90;;;;;;5017097;28;20316;-79
2021/10/18 00:11:27;;;;;;;231.63;215.20;;;8.20;99.90;;;;;;5016704;28;20412;-79
2021/10/18 00:13:59;;;;;;;284.37;266.27;;;8.20;99.90;;;;;;5015671;28;20637;-79
2021/10/18 00:16:25;;;;;;;212.52;197.27;;;8.20;99.90;;;;;;5015494;28;20194;-79
2021/10/18 00:18:51;;;;;;;193.47;178.90;;;8.20;99.90;;;;;;5015359;28;20190;-79
2021/10/18 00:21:16;;;;;;;210.60;195.33;;;8.20;99.90;;;;;;5017241;28;20196;-79
2021/10/18 00:26:13;;;;;;;213.82;198.15;;;8.20;99.90;;;;;;5018894;28;20198;-84
2021/10/18 00:28:38;;;;;;;250.35;233.40;;;8.10;99.90;;;;;;5020399;28;20601;-83
2021/10/18 00:31:04;;;;;;;250.77;234.23;;;8.10;99.90;;;;;;5019812;28;20170;-83
2021/10/18 00:33:30;;;;;;;248.87;232.57;;;8.10;99.90;;;;;;5019648;28;20538;-83
2021/10/18 00:35:57;;;;;;;286.23;268.17;;;8.00;99.90;;;;;;5018599;28;20194;-83
2021/10/18 00:38:22;;;;;;;343.83;323.13;;;8.10;99.90;;;;;;5017854;28;20328;-83
2021/10/18 00:40:49;;;;;;;331.17;311.57;;;8.10;99.90;;;;;;5017208;28;20201;-84
2021/10/18 00:43:14;;;;;;;331.45;311.20;;;8.00;99.90;;;;;;5019064;28;20176;-83
2021/10/18 00:45:40;;;;;;;321.57;302.17;;;8.00;99.90;;;;;;5019596;28;20258;-83
2021/10/18 00:48:06;;;;;;;338.37;318.87;;;8.10;99.90;;;;;;5019706;28;20222;-83
2021/10/18 00:50:32;;;;;;;334.40;314.87;;;8.10;99.90;;;;;;5020020;28;20165;-83
2021/10/18 00:52:58;;;;;;;316.97;297.63;;;8.10;99.90;;;;;;5020375;28;20530;-83
2021/10/18 00:55:24;;;;;;;302.25;283.40;;;8.10;99.90;;;;;;5017401;28;20409;-83
2021/10/18 00:57:51;;;;;;;301.85;282.98;;;8.10;99.90;;;;;;5019157;28;20657;-83
2021/10/18 01:00:19;;;;;;;228.45;212.65;;;8.00;99.90;;;;;;5017284;28;20192;-84
2021/10/18 01:02:45;;;;;;;292.05;273.00;;;8.00;99.90;;;;;;5019614;28;20644;-83
2021/10/18 01:05:11;;;;;;;330.50;310.90;;;8.00;99.90;;;;;;5020180;28;20162;-84
2021/10/18 01:07:37;;;;;;;392.77;370.73;;;8.00;99.90;;;;;;5019804;28;20424;-84
2021/10/18 01:10:04;;;;;;;317.57;297.63;;;7.90;99.90;;;;;;5017658;28;20170;-83
2021/10/18 01:12:30;;;;;;;295.52;276.85;;;7.90;99.90;;;;;;5019243;28;20177;-83
2021/10/18 01:14:55;;;;;;;321.17;301.63;;;7.90;99.90;;;;;;5018765;28;20170;-83
2021/10/18 01:17:21;;;;;;;303.37;284.90;;;7.90;99.90;;;;;;5019812;28;20459;-83
2021/10/18 01:19:49;;;;;;;286.93;269.10;;;7.90;99.90;;;;;;5019509;28;20188;-83
2021/10/18 01:22:14;;;;;;;309.63;290.38;;;7.90;99.90;;;;;;5018076;28;20178;-83
2021/10/18 01:24:40;;;;;;;351.60;330.83;;;7.90;99.90;;;;;;5016074;28;20193;-83
2021/10/18 01:27:06;;;;;;;345.37;323.90;;;7.90;99.90;;;;;;5015635;28;20170;-83
2021/10/18 01:29:41;;;;;;;338.33;318.40;;;7.80;99.90;;;;;;5017462;28;20166;-84
2021/10/18 01:32:07;;;;;;;341.42;321.38;;;7.80;99.90;;;;;;5017193;28;20204;-84
2021/10/18 01:34:33;;;;;;;352.87;332.13;;;7.90;99.90;;;;;;5017957;28;20213;-84
2021/10/18 01:37:01;;;;;;;305.08;286.70;;;7.80;99.90;;;;;;5018748;28;20506;-83
2021/10/18 01:39:27;;;;;;;318.10;298.52;;;7.80;99.90;;;;;;5015993;28;20174;-83
2021/10/18 01:41:53;;;;;;;320.08;301.15;;;7.70;99.90;;;;;;5017038;28;20162;-84
2021/10/18 01:44:19;;;;;;;381.00;359.43;;;7.80;99.90;;;;;;5018569;28;20162;-83
2021/10/18 01:46:45;;;;;;;352.05;331.90;;;7.80;99.90;;;;;;5022008;28;20411;-83
2021/10/18 01:49:13;;;;;;;296.37;278.30;;;7.70;99.90;;;;;;5022519;28;20186;-83
2021/10/18 01:51:39;;;;;;;285.65;267.95;;;7.70;99.90;;;;;;5022385;28;20177;-83
2021/10/18 01:54:06;;;;;;;311.17;291.97;;;7.60;99.90;;;;;;5022563;28;20165;-83
2021/10/18 01:56:33;;;;;;;300.85;282.33;;;7.50;99.90;;;;;;5022249;28;20982;-83
2021/10/18 01:59:00;;;;;;;262.70;245.88;;;7.40;99.90;;;;;;5022710;28;20200;-84
2021/10/18 02:01:25;;;;;;;318.30;298.80;;;7.50;99.90;;;;;;5023601;28;20193;-84
2021/10/18 02:03:51;;;;;;;257.73;240.50;;;7.40;99.90;;;;;;5021525;28;20239;-84
2021/10/18 02:06:19;;;;;;;340.70;320.73;;;7.40;99.90;;;;;;5021976;28;20177;-83
2021/10/18 02:08:45;;;;;;;284.42;266.17;;;7.40;99.90;;;;;;5020405;28;20197;-84
2021/10/18 02:11:12;;;;;;;282.60;264.47;;;7.30;99.90;;;;;;5020762;28;20261;-83
2021/10/18 02:13:38;;;;;;;291.10;272.92;;;7.30;99.90;;;;;;5020523;28;20228;-84
2021/10/18 02:16:04;;;;;;;281.20;262.97;;;7.30;99.90;;;;;;5021871;28;20194;-83
2021/10/18 02:18:33;;;;;;;282.52;264.58;;;7.30;99.90;;;;;;5021467;28;20416;-84
2021/10/18 02:21:01;;;;;;;280.15;262.48;;;7.20;99.90;;;;;;5018589;28;20170;-84
2021/10/18 02:23:31;;;;;;;270.02;252.52;;;7.20;99.90;;;;;;5021553;28;20161;-84
2021/10/18 02:25:57;;;;;;;265.35;247.80;;;7.20;99.90;;;;;;5020996;28;20225;-84
2021/10/18 02:28:23;;;;;;;272.43;254.53;;;7.20;99.90;;;;;;5020302;28;20214;-83
2021/10/18 02:30:49;;;;;;;273.00;255.47;;;7.20;99.90;;;;;;5020327;28;20432;-83
2021/10/18 02:33:15;;;;;;;290.33;272.08;;;7.20;99.90;;;;;;5021279;28;20499;-83
2021/10/18 02:35:41;;;;;;;304.70;285.95;;;7.10;99.90;;;;;;5021224;28;20201;-84
2021/10/18 02:38:10;;;;;;;314.33;295.10;;;7.10;99.90;;;;;;5019566;28;20221;-84
2021/10/18 02:40:35;;;;;;;328.52;308.70;;;7.10;99.90;;;;;;5019962;28;20533;-85
2021/10/18 02:43:01;;;;;;;346.07;325.07;;;7.10;99.90;;;;;;5018559;28;20162;-84
2021/10/18 02:45:27;;;;;;;309.00;290.13;;;7.10;99.90;;;;;;5021194;28;20689;-84
2021/10/18 02:47:52;;;;;;;350.17;329.80;;;7.10;99.90;;;;;;5019876;28;20197;-83
2021/10/18 02:50:18;;;;;;;316.77;298.03;;;7.10;99.90;;;;;;5021186;28;20170;-83
2021/10/18 02:52:44;;;;;;;335.93;316.17;;;7.00;99.90;;;;;;5021005;28;20691;-84
2021/10/18 02:55:09;;;;;;;314.27;296.03;;;7.00;99.90;;;;;;5019801;28;20200;-83
2021/10/18 02:57:35;;;;;;;356.43;335.17;;;7.00;99.90;;;;;;5018300;28;20688;-83
2021/10/18 03:00:02;;;;;;;318.88;300.30;;;7.00;99.90;;;;;;5018817;28;20186;-83
2021/10/18 03:02:28;;;;;;;321.05;302.23;;;7.00;99.90;;;;;;5020762;28;20249;-83
2021/10/18 03:04:54;;;;;;;344.63;324.57;;;6.90;99.90;;;;;;5020231;28;20189;-84
2021/10/18 03:07:21;;;;;;;314.90;296.03;;;6.90;99.90;;;;;;5020289;28;20721;-83
2021/10/18 03:09:48;;;;;;;303.30;285.25;;;6.90;99.90;;;;;;5020790;28;20261;-84
2021/10/18 03:12:14;;;;;;;306.50;288.50;;;6.90;99.90;;;;;;5020420;28;20193;-83
2021/10/18 03:14:39;;;;;;;301.87;283.87;;;6.90;99.90;;;;;;5021186;28;20436;-83
2021/10/18 03:17:05;;;;;;;338.03;318.27;;;6.80;99.90;;;;;;5020674;28;20276;-83
2021/10/18 03:19:30;;;;;;;307.20;288.63;;;6.90;99.90;;;;;;5020365;28;20166;-83
2021/10/18 03:21:56;;;;;;;309.63;291.23;;;6.90;99.90;;;;;;5021135;28;20648;-83
2021/10/18 03:24:22;;;;;;;347.93;327.67;;;6.90;99.90;;;;;;5018878;28;20249;-84
2021/10/18 03:26:47;;;;;;;305.17;286.43;;;6.90;99.90;;;;;;5020524;28;20241;-83
2021/10/18 03:29:13;;;;;;;327.10;308.47;;;6.90;99.90;;;;;;5019627;28;20747;-83
2021/10/18 03:31:39;;;;;;;348.63;328.37;;;6.90;99.90;;;;;;5020299;28;20173;-83
2021/10/18 03:34:05;;;;;;;359.77;339.53;;;6.90;99.90;;;;;;5019179;28;20447;-83
2021/10/18 03:36:31;;;;;;;379.27;357.95;;;7.00;99.90;;;;;;5019159;28;20552;-83
2021/10/18 03:38:57;;;;;;;367.87;347.20;;;7.00;99.90;;;;;;5019767;28;20188;-83
2021/10/18 03:41:23;;;;;;;304.80;286.53;;;7.00;99.90;;;;;;5017878;28;20413;-84
2021/10/18 03:43:49;;;;;;;350.90;330.97;;;7.00;99.90;;;;;;5019650;28;20209;-83
2021/10/18 03:46:14;;;;;;;351.13;331.20;;;7.00;99.90;;;;;;5018773;28;20431;-83
2021/10/18 03:48:40;;;;;;;362.45;342.08;;;7.00;99.90;;;;;;5018414;28;20189;-83
2021/10/18 03:51:06;;;;;;;350.47;329.70;;;7.00;99.90;;;;;;5019062;28;20170;-83
2021/10/18 03:53:31;;;;;;;307.67;289.67;;;7.00;99.90;;;;;;5018197;28;20217;-83
2021/10/18 03:56:00;;;;;;;322.40;303.60;;;6.90;99.90;;;;;;5018033;28;20201;-84
2021/10/18 03:58:26;;;;;;;332.02;312.33;;;6.90;99.90;;;;;;5017916;28;20561;-83
2021/10/18 04:00:57;;;;;;;326.93;308.43;;;6.90;99.90;;;;;;5018642;28;20161;-84
2021/10/18 04:03:23;;;;;;;364.60;343.80;;;6.80;99.90;;;;;;5018536;28;20146;-83
2021/10/18 04:05:48;;;;;;;325.73;307.20;;;6.80;99.90;;;;;;5018990;28;20189;-84
2021/10/18 04:08:14;;;;;;;353.30;333.37;;;6.90;99.90;;;;;;5018082;28;20626;-84
2021/10/18 04:10:40;;;;;;;351.30;331.37;;;6.90;99.90;;;;;;5017351;28;20511;-84
2021/10/18 04:13:06;;;;;;;356.03;335.87;;;6.80;99.90;;;;;;5016911;28;20170;-84
2021/10/18 04:15:32;;;;;;;326.10;307.55;;;6.80;99.90;;;;;;5018292;28;20166;-83
2021/10/18 04:18:03;;;;;;;344.07;324.57;;;6.70;99.90;;;;;;5017522;28;20204;-83
2021/10/18 04:20:32;;;;;;;340.70;321.55;;;6.80;99.90;;;;;;5017320;28;20154;-83
2021/10/18 04:22:58;;;;;;;375.67;354.83;;;6.80;99.90;;;;;;5018001;28;20169;-83
2021/10/18 04:25:27;;;;;;;337.80;318.87;;;6.70;99.90;;;;;;5016429;28;20185;-83
2021/10/18 04:27:52;;;;;;;352.38;331.90;;;6.70;99.90;;;;;;5017200;28;20224;-83
2021/10/18 04:30:24;;;;;;;330.80;311.77;;;6.70;99.90;;;;;;5017145;28;20170;-83
2021/10/18 04:32:55;;;;;;;342.98;323.75;;;6.70;99.90;;;;;;5016790;28;20174;-83
2021/10/18 04:35:27;;;;;;;381.08;360.15;;;6.70;99.90;;;;;;5017236;28;20175;-83
2021/10/18 04:38:04;;;;;;;332.05;313.23;;;6.80;99.90;;;;;;5017639;28;20197;-83
2021/10/18 04:40:30;;;;;;;357.13;336.98;;;6.70;99.90;;;;;;5016782;28;20158;-84
2021/10/18 04:43:01;;;;;;;333.17;314.23;;;6.70;99.90;;;;;;5014851;28;20174;-83
2021/10/18 04:45:27;;;;;;;365.20;345.30;;;6.80;99.90;;;;;;5015605;28;20231;-84
2021/10/18 04:47:53;;;;;;;331.80;312.57;;;6.80;99.90;;;;;;5016599;28;20186;-84
2021/10/18 04:50:22;;;;;;;349.20;330.00;;;6.70;99.90;;;;;;5015366;28;20652;-84
2021/10/18 04:52:59;;;;;;;401.90;379.52;;;6.70;99.90;;;;;;5015605;28;20193;-83
2021/10/18 04:55:24;;;;;;;368.00;347.48;;;6.60;99.90;;;;;;5016912;28;20149;-83
2021/10/18 04:58:00;;;;;;;309.47;291.63;;;6.60;99.90;;;;;;5016541;28;20665;-83
2021/10/18 05:00:33;;;;;;;344.23;325.00;;;6.60;99.90;;;;;;5016684;28;20491;-84
2021/10/18 05:02:58;;;;;;;325.65;307.25;;;6.60;99.90;;;;;;5017544;28;20157;-84
2021/10/18 05:05:26;;;;;;;344.53;325.30;;;6.60;99.90;;;;;;5016963;28;20511;-83
2021/10/18 05:08:13;;;;;;;319.90;301.45;;;6.50;99.90;;;;;;5016645;28;20672;-84
2021/10/18 05:10:41;;;;;;;318.40;299.45;;;6.60;99.90;;;;;;5015553;28;20645;-83
2021/10/18 05:13:07;;;;;;;345.90;325.48;;;6.50;99.90;;;;;;5016159;28;20719;-84
2021/10/18 05:15:35;;;;;;;344.27;324.77;;;6.50;99.90;;;;;;5017052;28;20255;-84
2021/10/18 05:18:03;;;;;;;331.85;312.88;;;6.60;99.90;;;;;;5017188;28;20178;-84
2021/10/18 05:20:30;;;;;;;338.90;319.92;;;6.60;99.90;;;;;;5019629;28;20169;-83
2021/10/18 05:22:56;;;;;;;353.92;334.38;;;6.60;99.90;;;;;;5020649;28;20158;-84
2021/10/18 05:25:25;;;;;;;325.43;306.73;;;6.60;99.90;;;;;;5021297;28;20178;-84
2021/10/18 05:27:53;;;;;;;313.45;295.40;;;6.50;99.90;;;;;;5021491;28;20455;-84
2021/10/18 05:30:24;;;;;;;302.88;285.02;;;6.50;99.90;;;;;;5021122;28;20161;-83
2021/10/18 05:32:57;;;;;;;338.65;319.38;;;6.50;99.90;;;;;;5020476;28;20245;-83
2021/10/18 05:35:26;;;;;;;356.27;336.70;;;6.50;99.90;;;;;;5020566;28;20158;-84
2021/10/18 05:37:53;;;;;;;364.45;344.17;;;6.50;99.90;;;;;;5020035;28;20202;-84
2021/10/18 05:40:22;;;;;;;348.63;328.88;;;6.50;99.90;;;;;;5019682;28;20178;-84
2021/10/18 05:42:50;;;;;;;337.08;317.58;;;6.50;99.90;;;;;;5019173;28;20161;-84
2021/10/18 05:45:17;;;;;;;332.08;312.08;;;6.40;99.90;;;;;;5020261;28;20162;-84
2021/10/18 05:48:03;;;;;;;318.30;300.15;;;6.40;99.90;;;;;;5018582;28;20194;-84
2021/10/18 05:50:37;;;;;;;367.40;346.70;;;6.50;99.90;;;;;;5018818;28;20244;-84
2021/10/18 05:53:03;;;;;;;285.85;268.80;;;6.50;99.90;;;;;;5019963;28;20164;-84
2021/10/18 05:55:29;;;;;;;340.53;320.33;;;6.50;99.90;;;;;;5019393;28;20185;-84
2021/10/18 05:58:00;;;;;;;321.13;302.30;;;6.50;99.90;;;;;;5020008;28;20449;-84
2021/10/18 06:00:27;;;;;;;349.48;329.42;;;6.50;99.90;;;;;;5019859;28;20146;-84
2021/10/18 06:02:53;;;;;;;337.50;318.30;;;6.50;99.90;;;;;;5015990;28;20232;-84
2021/10/18 06:05:44;;;;;;;320.98;302.15;;;6.50;99.90;;;;;;5019902;28;20181;-84
2021/10/18 06:08:19;;;;;;;317.88;299.48;;;6.50;99.90;;;;;;5019324;28;20193;-84
2021/10/18 06:10:47;;;;;;;327.25;307.98;;;6.60;99.90;;;;;;5018701;28;20162;-83
2021/10/18 06:13:20;;;;;;;328.75;310.17;;;6.60;99.90;;;;;;5019474;28;20249;-83
2021/10/18 06:15:59;;;;;;;319.08;300.83;;;6.70;99.90;;;;;;5020139;28;20181;-84
2021/10/18 06:18:28;;;;;;;359.88;339.60;;;6.70;99.90;;;;;;5019446;28;20190;-84
2021/10/18 06:20:59;;;;;;;306.33;288.45;;;6.70;99.90;;;;;;5016308;28;20579;-84
2021/10/18 06:23:25;;;;;;;352.42;332.80;;;6.70;99.90;;;;;;5019596;28;20201;-83
2021/10/18 06:25:53;;;;;;;369.02;348.75;;;6.70;99.90;;;;;;5097178;22;20229;-79
2021/10/18 06:28:19;;;;;;;342.70;322.50;;;6.80;99.90;;;;;;5038561;28;20190;-79
2021/10/18 06:30:45;;;;;;;326.65;307.02;;;6.80;99.90;;;;;;5036648;28;20180;-79
2021/10/18 06:33:11;;;;;;;367.43;347.63;;;6.80;99.90;;;;;;5038323;28;20532;-78
2021/10/18 06:35:38;;;;;;;310.97;292.97;;;6.80;99.90;;;;;;5037455;28;20161;-79
2021/10/18 06:38:24;;;;;;;353.80;333.98;;;6.80;99.90;;;;;;5038100;28;20456;-80
2021/10/18 06:40:50;;;;;;;328.17;309.27;;;6.80;99.90;;;;;;5038042;28;20273;-78
2021/10/18 06:43:17;;;;;;;305.30;287.48;;;6.90;99.90;;;;;;5036527;28;20211;-78
2021/10/18 06:45:44;;;;;;;304.90;286.58;;;6.90;99.90;;;;;;5036571;28;20165;-78
2021/10/18 06:48:12;;;;;;;287.23;269.42;;;6.90;99.90;;;;;;5037719;28;20177;-79
2021/10/18 06:50:39;;;;;;;337.10;317.55;;;7.00;99.90;;;;;;5036566;28;20255;-78
2021/10/18 06:53:07;;;;;;;335.92;316.80;;;7.00;99.90;;;;;;5036538;28;20173;-79
2021/10/18 06:55:33;;;;;;;300.83;282.90;;;7.00;99.90;;;;;;5036211;28;20169;-78
2021/10/18 06:57:59;;;;;;;349.05;329.42;;;7.10;99.90;;;;;;5038237;28;20197;-78
2021/10/18 07:00:25;;;;;;;324.88;306.30;;;7.10;99.90;;;;;;5037846;28;20191;-79
2021/10/18 07:02:51;;;;;;;288.87;270.97;;;7.10;99.90;;;;;;5038240;28;20244;-79
2021/10/18 07:05:18;;;;;;;295.20;277.27;;;7.20;99.90;;;;;;5038218;28;20896;-77
2021/10/18 07:07:43;;;;;;;295.02;276.48;;;7.20;99.90;;;;;;5036386;28;20199;-79
2021/10/18 07:10:09;;;;;;;292.73;274.87;;;7.20;99.90;;;;;;5038735;28;20256;-79
2021/10/18 07:12:38;;;;;;;252.67;236.13;;;7.30;99.90;;;;;;5038374;28;20165;-79
2021/10/18 07:15:05;;;;;;;263.95;247.27;;;7.30;99.90;;;;;;5036885;28;20176;-79
2021/10/18 07:17:31;;;;;;;259.13;242.35;;;7.40;99.90;;;;;;5038457;28;20203;-79
2021/10/18 07:19:57;;;;;;;263.70;246.60;;;7.50;99.90;;;;;;5037791;28;20525;-79
2021/10/18 07:22:30;;;;;;;443.73;420.02;;;7.60;99.90;;;;;;5037208;28;20470;-79
2021/10/18 07:24:56;;;;;;;268.05;251.10;;;7.60;99.90;;;;;;5035728;28;20678;-79
2021/10/18 07:27:25;;;;;;;277.13;259.87;;;7.60;99.90;;;;;;5035848;28;20193;-79
2021/10/18 07:29:51;;;;;;;241.52;224.85;;;7.60;99.90;;;;;;5036622;28;20419;-78
2021/10/18 07:32:17;;;;;;;297.77;279.25;;;7.60;99.90;;;;;;5037251;28;20166;-79
2021/10/18 07:34:43;;;;;;;250.48;233.30;;;7.60;99.90;;;;;;5037302;28;20165;-78
2021/10/18 07:37:11;;;;;;;206.47;190.47;;;7.70;99.90;;;;;;5035706;28;20204;-79
2021/10/18 07:39:37;;;;;;;258.40;241.80;;;7.70;99.90;;;;;;5036083;28;20169;-78
2021/10/18 07:42:04;;;;;;;202.03;187.27;;;7.80;99.90;;;;;;5036581;28;20165;-79
2021/10/18 07:44:30;;;;;;;221.43;205.80;;;7.90;99.90;;;;;;5036506;28;20674;-79
2021/10/18 07:46:59;;;;;;;222.20;206.00;;;7.90;99.90;;;;;;5037089;28;20149;-78
2021/10/18 07:49:34;;;;;;;212.73;196.88;;;7.90;99.90;;;;;;5034822;28;20434;-80
2021/10/18 07:52:00;;;;;;;210.70;195.20;;;8.00;99.90;;;;;;5036544;28;20157;-78
2021/10/18 07:54:29;;;;;;;226.47;210.37;;;8.10;99.90;;;;;;5036730;28;20169;-79
2021/10/18 07:56:54;;;;;;;218.48;201.95;;;8.20;99.90;;;;;;5036527;28;20443;-79
2021/10/18 07:59:23;;;;;;;190.97;176.30;;;8.20;99.90;;;;;;5036966;28;20188;-79
2021/10/18 08:01:49;;;;;;;163.40;149.23;;;8.30;99.90;;;;;;5037234;28;20165;-80
2021/10/18 08:04:14;;;;;;;198.70;183.63;;;8.30;99.90;;;;;;5037536;28;20271;-79
2021/10/18 08:06:40;;;;;;;205.57;189.93;;;8.40;99.90;;;;;;5035351;28;20169;-79
2021/10/18 08:09:10;;;;;;;192.43;177.30;;;8.40;99.90;;;;;;5036959;28;20268;-79
2021/10/18 08:11:36;;;;;;;199.32;184.25;;;8.50;99.90;;;;;;5037550;28;20404;-79
2021/10/18 08:14:02;;;;;;;188.17;172.93;;;8.50;99.90;;;;;;5036317;28;20176;-79
2021/10/18 08:16:27;;;;;;;181.88;167.15;;;8.60;99.90;;;;;;5035517;28;20539;-78
2021/10/18 08:18:53;;;;;;;216.93;201.33;;;8.60;99.90;;;;;;5036514;28;20201;-79
2021/10/18 08:21:19;;;;;;;210.00;194.10;;;8.70;99.90;;;;;;5036922;28;20169;-79
2021/10/18 08:23:45;;;;;;;213.43;196.83;;;8.70;99.90;;;;;;5035515;28;20264;-79
2021/10/18 08:26:11;;;;;;;214.53;198.43;;;8.80;99.90;;;;;;5035961;28;20223;-78
2021/10/18 08:28:37;;;;;;;179.97;165.70;;;8.90;99.90;;;;;;5035293;28;20966;-79
2021/10/18 08:31:03;;;;;;;190.03;175.20;;;9.00;99.90;;;;;;5036376;28;20407;-78
2021/10/18 08:33:28;;;;;;;223.83;207.33;;;9.10;99.90;;;;;;5035255;28;20416;-79
2021/10/18 08:35:54;;;;;;;217.77;201.00;;;9.10;99.90;;;;;;5036731;28;20411;-79
2021/10/18 08:46:06;;;;;;;246.57;229.13;;;9.50;99.90;;;;;;5037126;28;20207;-80
2021/10/18 08:48:33;;;;;;;236.48;220.20;;;9.60;99.90;;;;;;5035500;28;20768;-79
2021/10/18 08:50:59;;;;;;;258.02;240.02;;;9.70;99.90;;;;;;5037154;28;20331;-79
2021/10/18 08:53:27;;;;;;;260.50;243.00;;;9.80;99.90;;;;;;5036251;28;20194;-79
2021/10/18 08:55:53;;;;;;;254.77;237.70;;;9.90;99.90;;;;;;5036118;28;20400;-79
2021/10/18 08:58:19;;;;;;;243.23;226.57;;;10.00;99.90;;;;;;5036460;28;20560;-79
2021/10/18 09:00:48;;;;;;;289.92;271.67;;;10.00;99.90;;;;;;5036484;28;20161;-79
2021/10/18 09:03:16;;;;;;;260.95;243.35;;;10.10;99.90;;;;;;5035363;28;20188;-79
2021/10/18 09:05:42;;;;;;;288.10;270.08;;;10.20;99.90;;;;;;5034908;28;20540;-79
2021/10/18 09:08:08;;;;;;;239.52;222.40;;;10.10;99.90;;;;;;5036404;28;20177;-79
2021/10/18 09:10:35;;;;;;;265.63;248.37;;;10.10;99.90;;;;;;5036624;28;20240;-79
2021/10/18 09:13:11;;;;;;;296.77;278.20;;;10.20;99.90;;;;;;5036734;28;20168;-79
2021/10/18 09:15:37;;;;;;;315.52;295.58;;;10.30;99.90;;;;;;5036592;28;20164;-80
2021/10/18 09:18:05;;;;;;;254.40;236.82;;;10.30;99.90;;;;;;5036163;28;20276;-79
2021/10/18 09:20:35;;;;;;;316.45;297.02;;;10.30;99.90;;;;;;5035267;28;20167;-79
2021/10/18 09:23:28;;;;;;;308.20;288.17;;;10.40;99.90;;;;;;5036371;28;20153;-79
2021/10/18 09:26:00;;;;;;;324.17;304.88;;;10.40;99.90;;;;;;5035506;28;20190;-79
2021/10/18 09:28:27;;;;;;;330.67;310.40;;;10.50;99.90;;;;;;5036631;28;20216;-79
2021/10/18 09:30:54;;;;;;;328.40;309.33;;;10.70;99.90;;;;;;5035304;28;20708;-79
2021/10/18 09:33:34;;;;;;;320.95;301.50;;;10.70;99.90;;;;;;5035094;28;20174;-79
2021/10/18 09:36:01;;;;;;;316.23;296.48;;;10.80;99.90;;;;;;5035122;28;20207;-78
2021/10/18 09:38:27;;;;;;;346.13;325.35;;;11.00;99.90;;;;;;5036294;28;20186;-79
2021/10/18 09:40:58;;;;;;;365.93;344.57;;;11.10;99.90;;;;;;5035917;28;20166;-79
2021/10/18 09:43:34;;;;;;;361.25;340.40;;;11.20;99.90;;;;;;5035685;28;20400;-79
2021/10/18 10:53:25;;;;;;;139.90;126.87;;;13.10;99.90;;;;;;5038692;28;20624;-79
2021/10/18 10:55:52;;;;;;;148.60;135.00;;;13.00;99.90;;;;;;5038897;28;20889;-79
2021/10/18 10:58:31;;;;;;;134.47;121.47;;;13.00;99.90;;;;;;5039070;28;20939;-79
2021/10/18 11:00:56;;;;;;;151.40;137.27;;;12.90;99.90;;;;;;5038775;28;20415;-78
2021/10/18 11:03:23;;;;;;;115.77;103.07;;;12.90;99.90;;;;;;5038851;28;20396;-79
2021/10/18 11:06:09;;;;;;;117.43;104.93;;;12.80;99.90;;;;;;5038913;28;20203;-79
2021/10/18 11:08:39;;;;;;;108.83;96.87;;;12.90;99.90;;;;;;5038667;28;20416;-79
2021/10/18 11:11:11;;;;;;;100.37;73.47;;;12.80;99.90;;;;;;5038203;28;20396;-79
2021/10/18 11:14:00;;;;;;;95.13;63.72;;;12.70;99.90;;;;;;5038934;28;20754;-79
2021/10/18 11:16:28;;;;;;;93.57;54.20;;;12.80;99.90;;;;;;5032335;28;20291;-79
2021/10/18 11:18:56;;;;;;;98.05;63.88;;;13.00;99.90;;;;;;5036618;28;20842;-79
2021/10/18 11:21:24;;;;;;;106.63;91.33;;;13.30;99.90;;;;;;5038299;28;20161;-79
2021/10/18 11:24:05;;;;;;;157.27;143.33;;;13.50;99.90;;;;;;5037231;28;20412;-79
2021/10/18 11:26:36;;;;;;;130.13;117.13;;;13.80;99.90;;;;;;5036996;28;20410;-79
2021/10/18 11:29:08;;;;;;;91.20;48.00;;;13.90;99.90;;;;;;5036819;28;20420;-79
2021/10/18 11:31:43;;;;;;;90.13;44.70;;;13.90;99.90;;;;;;5038198;28;20387;-79
2021/10/18 11:34:09;;;;;;;91.60;43.37;;;13.90;99.90;;;;;;5036980;28;20400;-79
2021/10/18 11:36:39;;;;;;;119.23;106.60;;;13.90;99.90;;;;;;5036794;28;20443;-79
2021/10/18 11:39:17;;;;;;;86.77;37.23;;;13.90;99.90;;;;;;5037949;28;20842;-79
2021/10/18 11:42:11;;;;;;;89.50;38.30;;;14.00;99.90;;;;;;5038001;28;20369;-79
2021/10/18 11:44:37;;;;;;;85.23;34.40;;;14.00;99.90;;;;;;5037310;28;20445;-79
2021/10/18 11:47:03;;;;;;;86.87;35.77;;;14.10;99.90;;;;;;5036680;28;20954;-78
2021/10/18 11:49:28;;;;;;;94.00;43.67;;;14.30;99.90;;;;;;5036666;28;20412;-79
2021/10/18 11:51:54;;;;;;;94.80;59.50;;;14.50;99.90;;;;;;5037891;28;20219;-79
2021/10/18 11:54:20;;;;;;;94.80;53.07;;;14.60;99.90;;;;;;5037903;28;20165;-78
2021/10/18 11:56:45;;;;;;;98.10;60.53;;;14.60;99.90;;;;;;5037611;28;20243;-78
2021/10/18 11:59:15;;;;;;;100.00;68.00;;;14.60;99.90;;;;;;5035560;28;20186;-79
2021/10/18 12:01:40;;;;;;;97.53;69.67;;;14.60;99.90;;;;;;5037866;28;20164;-79
2021/10/18 12:04:07;;;;;;;97.37;72.93;;;14.60;99.90;;;;;;5036057;28;20479;-78
2021/10/18 12:06:46;;;;;;;94.90;68.47;;;14.60;99.90;;;;;;5037546;28;20614;-79
2021/10/18 12:09:25;;;;;;;93.70;54.50;;;14.80;99.90;;;;;;5035981;28;20432;-78
2021/10/18 12:11:53;;;;;;;89.10;48.80;;;14.70;99.90;;;;;;5037293;28;20396;-79
2021/10/18 12:14:19;;;;;;;90.67;52.90;;;14.70;99.90;;;;;;5038059;28;20934;-79
2021/10/18 12:16:45;;;;;;;190.07;175.03;;;14.80;99.90;;;;;;5037556;28;20444;-79
2021/10/18 12:19:13;;;;;;;88.13;47.67;;;14.80;99.90;;;;;;5019429;28;20185;-79
2021/10/18 12:21:40;;;;;;;387.73;363.10;;;14.80;99.90;;;;;;5038001;28;20909;-79
2021/10/18 12:27:12;;;;;;;82.53;35.80;;;14.70;99.90;;;;;;5016849;23;20539;-80
2021/10/18 12:30:01;;;;;;;87.10;46.93;;;14.80;99.90;;;;;;4996370;28;20390;-80
2021/10/18 12:33:12;;;;;;;83.00;36.67;;;14.80;99.90;;;;;;4997118;28;20384;-81
2021/10/18 12:35:55;;;;;;;83.70;39.57;;;14.90;99.90;;;;;;4997115;28;20378;-81
2021/10/18 12:38:44;;;;;;;80.20;26.50;;;15.00;99.90;;;;;;4997156;28;20431;-81
2021/10/18 12:41:18;;;;;;;82.43;26.47;;;15.10;99.90;;;;;;4997179;28;20470;-80
2021/10/18 12:43:52;;;;;;;80.53;25.53;;;15.00;99.90;;;;;;4996811;28;20377;-82
2021/10/18 12:46:44;;;;;;;81.47;25.70;;;15.00;99.90;;;;;;4995389;28;20398;-80
2021/10/18 12:49:36;;;;;;;82.87;31.17;;;14.90;99.90;;;;;;4996644;28;20425;-80
2021/10/18 12:53:14;;;;;;;82.57;36.20;;;14.80;99.90;;;;;;4997295;28;20894;-81
2021/10/18 12:55:49;;;;;;;90.50;44.97;;;14.70;99.90;;;;;;4968850;28;20420;-80
2021/10/18 12:58:36;;;;;;;88.80;47.63;;;14.80;99.90;;;;;;4993630;28;20443;-80
2021/10/18 13:01:22;;;;;;;88.57;44.73;;;14.80;99.90;;;;;;4995529;28;20406;-81
2021/10/18 13:03:51;;;;;;;90.00;52.13;;;14.70;99.90;;;;;;4995481;28;20404;-80
2021/10/18 13:06:24;;;;;;;93.73;57.23;;;14.70;99.90;;;;;;4996316;28;20408;-80
2021/10/18 13:08:55;;;;;;;93.70;59.30;;;14.70;99.90;;;;;;4994962;28;20427;-80
2021/10/18 13:11:21;;;;;;;92.67;59.37;;;14.70;99.90;;;;;;4995214;28;20455;-80
2021/10/18 13:13:51;;;;;;;95.70;63.53;;;14.60;99.90;;;;;;4996530;28;20834;-80
2021/10/18 13:16:17;;;;;;;94.60;62.63;;;14.60;99.90;;;;;;4996322;28;20609;-80
2021/10/18 13:19:24;;;;;;;94.87;49.83;;;14.70;99.90;;;;;;4994944;28;20438;-80
2021/10/18 13:22:06;;;;;;;94.43;60.80;;;14.70;99.90;;;;;;4921821;28;20257;-80
2021/10/18 13:25:12;;;;;;;96.77;59.33;;;14.80;99.90;;;;;;4996264;28;20382;-80
2021/10/18 13:28:19;;;;;;;90.23;48.20;;;14.60;99.90;;;;;;4996097;28;20441;-80
2021/10/18 13:30:53;;;;;;;93.43;56.27;;;14.70;99.90;;;;;;4958435;28;20418;-80
2021/10/18 13:33:24;;;;;;;94.70;41.83;;;14.70;99.90;;;;;;4996163;28;20382;-80
2021/10/18 13:36:05;;;;;;;86.23;40.93;;;14.60;99.90;;;;;;4995709;28;20405;-80
2021/10/18 13:39:18;;;;;;;88.80;47.53;;;14.70;99.90;;;;;;4994819;28;20495;-81
2021/10/18 13:42:21;;;;;;;;;;;;;;;;;;;;;
2021/10/18 13:44:48;;;;;;;93.80;62.57;;;14.80;99.90;;;;;;4924581;28;20410;-80
2021/10/18 13:50:14;;;;;;;91.40;55.97;;;14.70;99.90;;;;;;4999923;28;20833;-80
2021/10/18 13:52:40;;;;;;;94.23;62.70;;;14.80;99.90;;;;;;4998427;28;20408;-80
2021/10/18 13:55:15;;;;;;;89.93;58.10;;;14.80;99.90;;;;;;4999883;28;20410;-80